EPRZ

Rzeszów-Jasionka Airport

Rzeszów, Poland
METAR EPRZ 232000Z 25021KT 9999 -RA SCT015 OVC025 07/05 Q1002
Observed Flight Rules
Oct-23 @ 20:00 UTC (31 minutes ago) Marginal Visual Flight Rules
Wind Visibility Clouds Conditions
250° at 21 knots 10,000+ meters
  • Scattered at 1,500' AGL
  • Overcast at 2,500' AGL
  • Light Rain
Temperatures Readings
Current 7°C / 45°F
Dewpoint 5°C / 41°F
Humidity 87%
Altimeter 29.59" Hg
Pressure 1002 hPa
Elevation 202
METAR EPRZ 232000Z 25021KT 9999 -RA SCT015 OVC025 07/05 Q1002
Observed Flight Rules
Oct-23 @ 20:00 UTC
(31 minutes ago)
MVFR
Wind Visibility
250° at 21 knots 10,000+ meters
Clouds
  • Scattered at 1,500' AGL
  • Overcast at 2,500' AGL
Conditions
  • Light Rain
Temperature Dewpoint
7°C / 45°F 5°C / 41°F
Humidity Altimeter Pressure
87% 29.59" Hg 1002 hPa